Terminal Aerodrome Forecast
Issued by NWS Mt. Holly, NJ

Home | Current Version | Previous Version | Text Only | Print | Product List | Glossary On
Versions: 1 2 3 4 5 6 7 8 9 10 11 12 13 14
000
FTUS41 KPHI 202300
TAFRDG
TAF
KRDG 202320Z 2100/2124 19005KT P6SM VCSH SCT050 BKN100
     FM210300 13004KT P6SM VCSH BKN040
      TEMPO 2108/2112 5SM BR BKN025
     FM211900 19007KT 6SM -SHRA SCT040 BKN100=

USA.gov is the U.S. government's official web portal to all federal, state and local government web resources and services.